Accueil
METAR-TAF:

METAR-TAF

Aéroports :

Aéroport de Maribor

Maribor, Slovénie

latitude: 46-29N, longitude: 015-41E, altitude: 264 m

Observation

Le bulletin a été fait il y a 28 minutes, à 05:30 UTC
Vent 2 kt de nord
Température 9°C
Humidité 93%
Pression 1016 hPa
Visibilité 10 km ou plus
Nuages épars à une hauteur de 1300 ft
Ciel couvert à une hauteur de 3300 ft
pluie faible

METAR: LJMB 200530Z 01002KT 9999 -RA SCT013 OVC033 09/08 Q1016

Heure: 07:58 (05:58 UTC)

Prévision

Le bulletin a été fait il y a 58 minutes, à 05:00 UTC
Prévision valable du 20 à 06 UTC au 21 à 06 UTC
Vent 5 kt de nord/nord-est
Visibilité 10 km ou plus
Quelques nuages à une hauteur de 1500 ft
Nuages fragmentés à une hauteur de 3000 ft
Temporairement
du 20 à 06 UTC au 20 à 09 UTC
Nuages fragmentés à une hauteur de 1300 ft
pluie

TAF: LJMB 200500Z 2006/2106 02005KT 9999 FEW015 BKN030 TEMPO 2006/2009 RA BKN013

Observations et prévisions météorologiques de plus de 4000 aéroports (messages METAR et TAF).

Les stations disponibles sont représentées par des disques jaunes et rouges sur la carte.

Passer la souris dessus pour voir le nom de la station.

Cliquer dessus pour voir les observations et prévisions météorologiques.

Pour changer de carte: cliquez sur les boutons verts avec une croix noire pour zoomer, sur le bouton vert avec un tiret pour effectuer un zoom arrière, ou sur les flèches vertes pour les cartes adjacentes.


METAR-TAF: